createdAt,value
2023-01-26T00:01:23.984Z,99179.00
2023-01-26T00:03:51.278Z,99177.84
2023-01-26T00:06:20.035Z,99177.03
2023-01-26T00:08:49.965Z,99172.00
2023-01-26T00:11:19.153Z,99181.38
2023-01-26T00:13:49.460Z,99158.03
2023-01-26T00:16:16.215Z,99168.25
2023-01-26T00:18:43.574Z,99152.56
2023-01-26T00:21:14.662Z,99152.69
2023-01-26T00:23:41.916Z,99153.41
2023-01-26T00:26:15.378Z,99143.50
2023-01-26T00:28:42.377Z,99147.00
2023-01-26T00:31:14.112Z,99145.59
2023-01-26T00:33:40.903Z,99127.84
2023-01-26T00:36:10.285Z,99151.34
2023-01-26T00:38:37.082Z,99143.44
2023-01-26T00:41:03.778Z,99139.91
2023-01-26T00:43:30.411Z,99116.78
2023-01-26T00:45:56.977Z,99107.66
2023-01-26T00:48:24.790Z,99106.53
2023-01-26T00:50:52.917Z,99130.22
2023-01-26T00:53:19.710Z,99123.22
2023-01-26T00:55:46.364Z,99123.22
2023-01-26T00:58:13.091Z,99093.31
2023-01-26T01:00:39.996Z,99110.94
2023-01-26T01:03:07.317Z,99110.94
2023-01-26T01:05:34.950Z,99115.41
2023-01-26T01:08:02.174Z,99114.53
2023-01-26T01:10:29.203Z,99115.41
2023-01-26T01:12:56.675Z,99118.88
2023-01-26T01:15:23.920Z,99102.63
2023-01-26T01:17:50.950Z,99099.88
2023-01-26T01:20:17.825Z,99114.53
2023-01-26T01:22:46.499Z,99100.47
2023-01-26T01:25:13.085Z,99097.84
2023-01-26T01:27:39.730Z,99075.94
2023-01-26T01:30:08.252Z,99096.03
2023-01-26T01:32:36.474Z,99091.91
2023-01-26T01:35:03.866Z,99093.28
2023-01-26T01:37:30.937Z,99091.59
2023-01-26T01:39:57.685Z,99084.91
2023-01-26T01:42:24.351Z,99088.00
2023-01-26T01:45:35.901Z,99091.50
2023-01-26T01:48:07.178Z,99084.63
2023-01-26T01:50:39.516Z,99082.72
2023-01-26T01:53:10.488Z,99085.34
2023-01-26T01:55:37.159Z,99092.34
2023-01-26T01:58:05.955Z,99060.97
2023-01-26T02:00:32.763Z,99087.91
2023-01-26T02:03:19.031Z,99058.31
2023-01-26T02:06:07.110Z,99096.69
2023-01-26T02:08:35.755Z,99086.09
2023-01-26T02:11:10.355Z,99079.00
2023-01-26T02:13:37.568Z,99054.41
2023-01-26T02:16:04.590Z,99075.44
2023-01-26T02:18:31.362Z,99072.78
2023-01-26T02:21:02.394Z,99076.28
2023-01-26T02:23:40.938Z,99071.84
2023-01-26T02:26:12.766Z,99067.50
2023-01-26T02:28:40.660Z,99082.31
2023-01-26T02:31:09.154Z,99065.63
2023-01-26T02:33:36.432Z,99044.03
2023-01-26T02:36:06.297Z,99055.88
2023-01-26T02:38:46.643Z,99059.22
2023-01-26T02:41:37.406Z,99039.59
2023-01-26T02:44:07.615Z,99052.97
2023-01-26T02:46:34.245Z,99053.84
2023-01-26T02:49:19.568Z,99052.88
2023-01-26T02:51:47.294Z,99042.41
2023-01-26T02:54:33.974Z,99037.97
2023-01-26T02:57:04.035Z,99028.44
2023-01-26T02:59:30.659Z,99034.38
2023-01-26T03:01:58.230Z,99045.81
2023-01-26T03:04:25.185Z,99036.34
2023-01-26T03:06:52.521Z,99041.34
2023-01-26T03:09:19.198Z,99038.72
2023-01-26T03:11:46.999Z,99033.41
2023-01-26T03:14:15.377Z,99034.38
2023-01-26T03:16:42.482Z,99009.97
2023-01-26T03:19:30.958Z,99031.81
2023-01-26T03:22:16.696Z,99031.94
2023-01-26T03:25:01.988Z,99035.41
2023-01-26T03:27:32.158Z,99032.00
2023-01-26T03:30:02.566Z,99023.50
2023-01-26T03:32:30.291Z,99014.97
2023-01-26T03:34:57.295Z,99028.50
2023-01-26T03:37:24.457Z,99014.56
2023-01-26T03:40:23.753Z,99019.91
2023-01-26T03:43:10.187Z,99017.19
2023-01-26T03:45:55.513Z,98990.59
2023-01-26T03:48:43.315Z,99012.84
2023-01-26T03:51:28.689Z,99012.94
2023-01-26T03:54:15.133Z,99013.91
2023-01-26T03:56:41.796Z,99005.00
2023-01-26T03:59:15.372Z,99005.09
2023-01-26T04:02:04.493Z,99003.34
2023-01-26T04:04:50.916Z,99007.31
2023-01-26T04:07:38.897Z,99006.91
2023-01-26T04:10:06.317Z,99007.84
2023-01-26T04:12:33.375Z,99007.03
2023-01-26T04:15:33.900Z,99000.34
2023-01-26T04:18:25.246Z,99011.44
2023-01-26T04:21:10.663Z,98980.75
2023-01-26T04:23:40.523Z,98992.28
2023-01-26T04:26:07.184Z,98987.13
2023-01-26T04:28:35.969Z,98987.78
2023-01-26T04:31:04.608Z,98966.28
2023-01-26T04:33:32.852Z,98981.53
2023-01-26T04:36:06.617Z,98976.25
2023-01-26T04:38:35.398Z,98949.13
2023-01-26T04:41:02.751Z,98976.25
2023-01-26T04:43:32.977Z,98937.59
2023-01-26T04:46:03.321Z,98963.03
2023-01-26T04:48:30.805Z,98961.22
2023-01-26T04:50:59.880Z,98975.31
2023-01-26T04:53:27.021Z,98963.88
2023-01-26T04:55:54.190Z,98966.50
2023-01-26T04:58:21.090Z,98957.75
2023-01-26T05:00:55.157Z,98953.28
2023-01-26T05:03:22.574Z,98947.19
2023-01-26T05:05:50.901Z,98950.66
2023-01-26T05:08:20.248Z,98952.53
2023-01-26T05:10:47.389Z,98946.44
2023-01-26T05:13:24.065Z,98946.81
2023-01-26T05:16:29.136Z,98899.47
2023-01-26T05:18:58.620Z,98969.16
2023-01-26T05:21:40.463Z,98949.34
2023-01-26T05:24:11.196Z,98955.09
2023-01-26T05:27:16.756Z,98951.91
2023-01-26T05:29:44.383Z,98937.81
2023-01-26T05:32:11.209Z,98948.53
2023-01-26T05:34:37.912Z,98951.72
2023-01-26T05:37:05.839Z,98941.72
2023-01-26T05:39:33.732Z,98962.28
2023-01-26T05:42:01.872Z,98956.16
2023-01-26T05:44:34.297Z,98961.44
2023-01-26T05:47:07.762Z,98960.56
2023-01-26T05:49:34.931Z,98944.84
2023-01-26T05:52:01.490Z,98920.28
2023-01-26T05:54:29.830Z,98940.38
2023-01-26T05:56:57.600Z,98917.81
2023-01-26T05:59:25.821Z,98940.50
2023-01-26T06:01:52.925Z,98848.47
2023-01-26T06:04:19.824Z,98948.31
2023-01-26T06:06:58.250Z,98951.16
2023-01-26T06:09:30.192Z,98954.47
2023-01-26T06:12:22.008Z,98938.38
2023-01-26T06:14:58.381Z,98944.28
2023-01-26T06:17:33.776Z,98933.38
2023-01-26T06:20:03.504Z,98929.13
2023-01-26T06:22:31.627Z,98936.66
2023-01-26T06:24:59.370Z,98919.06
2023-01-26T06:27:25.945Z,98958.16
2023-01-26T06:29:53.107Z,98956.34
2023-01-26T06:32:20.071Z,98956.34
2023-01-26T06:34:53.317Z,98943.44
2023-01-26T06:37:20.816Z,98950.13
2023-01-26T06:39:48.181Z,98944.28
2023-01-26T06:42:14.839Z,98939.09
2023-01-26T06:44:41.480Z,98921.84
2023-01-26T06:47:08.680Z,98947.66
2023-01-26T06:49:38.797Z,98943.44
2023-01-26T06:52:28.198Z,98949.66
2023-01-26T06:55:00.404Z,98934.41
2023-01-26T06:57:48.322Z,98941.94
2023-01-26T07:00:50.285Z,98919.81
2023-01-26T07:03:26.946Z,98932.44
2023-01-26T07:05:53.522Z,98937.81
2023-01-26T07:08:20.080Z,98937.81
2023-01-26T07:10:46.704Z,98933.47
2023-01-26T07:13:13.215Z,98937.06
2023-01-26T07:15:39.943Z,98920.13
2023-01-26T07:18:06.594Z,98929.25
2023-01-26T07:20:33.233Z,98906.50
2023-01-26T07:23:00.868Z,98934.72
2023-01-26T07:25:27.676Z,98934.53
2023-01-26T07:27:58.716Z,98932.94
2023-01-26T07:30:26.395Z,98915.88
2023-01-26T07:32:53.323Z,98935.59
2023-01-26T07:35:19.947Z,98923.31
2023-01-26T07:37:46.576Z,98917.66
2023-01-26T07:40:13.656Z,98936.53
2023-01-26T07:42:40.274Z,98923.31
2023-01-26T07:45:20.875Z,98925.72
2023-01-26T07:47:48.063Z,98899.06
2023-01-26T07:50:14.910Z,98894.44
2023-01-26T07:52:43.623Z,98828.41
2023-01-26T07:55:10.494Z,98904.50
2023-01-26T07:57:37.102Z,98881.34
2023-01-26T08:00:04.608Z,98904.50
2023-01-26T08:02:38.349Z,98918.41
2023-01-26T08:05:05.389Z,98881.75
2023-01-26T08:07:32.006Z,98909.72
2023-01-26T08:09:59.186Z,98921.28
2023-01-26T08:12:26.535Z,98932.63
2023-01-26T08:14:53.108Z,98921.69
2023-01-26T08:17:19.665Z,98940.34
2023-01-26T08:19:46.932Z,98945.53
2023-01-26T08:22:13.917Z,98913.13
2023-01-26T08:24:40.564Z,98887.22
2023-01-26T08:27:07.169Z,98924.38
2023-01-26T08:29:33.810Z,98928.44
2023-01-26T08:32:03.131Z,98866.56
2023-01-26T08:34:29.996Z,98929.06
2023-01-26T08:36:56.523Z,98909.91
2023-01-26T08:39:23.148Z,98897.19
2023-01-26T08:41:49.967Z,98914.78
2023-01-26T08:44:16.624Z,98915.56
2023-01-26T08:46:46.107Z,98919.88
2023-01-26T08:49:12.988Z,98904.63
2023-01-26T08:51:39.492Z,98922.31
2023-01-26T08:54:10.697Z,98920.50
2023-01-26T08:56:37.366Z,98923.06
2023-01-26T08:59:03.863Z,98922.97
2023-01-26T09:01:30.505Z,98925.50
2023-01-26T09:03:58.305Z,98921.06
2023-01-26T09:06:25.360Z,98926.66
2023-01-26T09:08:51.856Z,98931.53
2023-01-26T09:11:18.497Z,98917.78
2023-01-26T09:13:45.010Z,98928.59
2023-01-26T09:16:17.473Z,98929.53
2023-01-26T09:18:44.133Z,98919.78
2023-01-26T09:21:10.719Z,98914.09
2023-01-26T09:23:38.656Z,98936.41
2023-01-26T09:26:05.469Z,98936.53
2023-01-26T09:28:32.157Z,98919.91
2023-01-26T09:31:04.787Z,98923.19
2023-01-26T09:33:31.838Z,98920.53
2023-01-26T09:36:06.679Z,98920.53
2023-01-26T09:38:33.545Z,98910.91
2023-01-26T09:41:33.228Z,98885.19
2023-01-26T09:44:23.394Z,98905.41
2023-01-26T09:47:15.895Z,98901.06
2023-01-26T09:49:57.558Z,98902.66
2023-01-26T09:53:03.318Z,98890.38
2023-01-26T09:55:31.666Z,98893.88
2023-01-26T09:58:05.496Z,98855.38
2023-01-26T10:00:52.082Z,98881.38
2023-01-26T10:03:50.313Z,98872.63
2023-01-26T10:06:29.521Z,98870.69
2023-01-26T10:09:30.023Z,98880.31
2023-01-26T10:12:00.941Z,98855.25
2023-01-26T10:14:40.551Z,98872.19
2023-01-26T10:17:15.197Z,98868.50
2023-01-26T10:19:55.721Z,98857.38
2023-01-26T10:22:45.292Z,98880.13
2023-01-26T10:25:39.434Z,98875.34
2023-01-26T10:28:30.593Z,98872.38
2023-01-26T10:30:57.619Z,98866.78
2023-01-26T10:33:33.703Z,98862.94
2023-01-26T10:36:06.616Z,98847.28
2023-01-26T10:38:33.198Z,98856.81
2023-01-26T10:41:04.981Z,98865.19
2023-01-26T10:43:36.229Z,98831.28
2023-01-26T10:46:04.482Z,98858.25
2023-01-26T10:48:31.320Z,98856.13
2023-01-26T10:51:19.993Z,98846.91
2023-01-26T10:53:46.687Z,98803.44
2023-01-26T10:56:20.271Z,98851.41
2023-01-26T10:58:52.568Z,98818.50
2023-01-26T11:01:23.023Z,98846.19
2023-01-26T11:04:04.624Z,98842.13
2023-01-26T11:06:31.816Z,98839.84
2023-01-26T11:09:13.679Z,98845.47
2023-01-26T11:11:41.057Z,98843.31
2023-01-26T11:14:19.279Z,98826.69
2023-01-26T11:17:05.716Z,98832.88
2023-01-26T11:19:57.587Z,98833.00
2023-01-26T11:22:52.274Z,98818.06
2023-01-26T11:25:29.399Z,98816.97
2023-01-26T11:28:00.313Z,98811.47
2023-01-26T11:30:56.023Z,98811.94
2023-01-26T11:33:28.511Z,98815.94
2023-01-26T11:36:04.466Z,98797.97
2023-01-26T11:38:39.090Z,98799.69
2023-01-26T11:41:20.814Z,98808.38
2023-01-26T11:43:50.202Z,98799.56
2023-01-26T11:46:42.926Z,98793.41
2023-01-26T11:49:34.180Z,98788.31
2023-01-26T11:52:25.049Z,98784.00
2023-01-26T11:55:15.033Z,98777.38
2023-01-26T11:57:53.761Z,98777.63
2023-01-26T12:00:31.223Z,98767.22
2023-01-26T12:03:06.291Z,98762.28
2023-01-26T12:05:46.231Z,98765.88
2023-01-26T12:08:22.274Z,98764.31
2023-01-26T12:10:58.054Z,98760.09
2023-01-26T12:13:40.660Z,98754.16
2023-01-26T12:16:16.782Z,98765.03
2023-01-26T12:19:09.259Z,98767.78
2023-01-26T12:21:41.701Z,98756.47
2023-01-26T12:25:01.099Z,98758.47
2023-01-26T12:27:50.449Z,98763.88
2023-01-26T12:30:23.808Z,98756.16
2023-01-26T12:32:51.216Z,98751.94
2023-01-26T12:35:32.624Z,98745.06
2023-01-26T12:38:18.023Z,98751.31
2023-01-26T12:40:52.847Z,98748.78
2023-01-26T12:43:37.649Z,98745.41
2023-01-26T12:46:07.972Z,98719.81
2023-01-26T12:48:41.520Z,98736.00
2023-01-26T12:51:21.898Z,98730.81
2023-01-26T12:53:58.184Z,98726.47
2023-01-26T12:56:49.721Z,98729.34
2023-01-26T12:59:39.429Z,98724.38
2023-01-26T13:02:15.184Z,98737.41
2023-01-26T13:04:43.729Z,98723.44
2023-01-26T13:07:31.093Z,98727.03
2023-01-26T13:10:17.687Z,98721.03
2023-01-26T13:13:00.692Z,98720.16
2023-01-26T13:15:30.364Z,98720.28
2023-01-26T13:18:04.430Z,98723.06
2023-01-26T13:20:40.312Z,98718.84
2023-01-26T13:23:28.575Z,98715.22
2023-01-26T13:26:16.803Z,98717.13
2023-01-26T13:28:45.097Z,98714.50
2023-01-26T13:31:12.737Z,98722.56
2023-01-26T13:33:41.148Z,98723.50
2023-01-26T13:36:16.276Z,98723.50
2023-01-26T13:38:47.522Z,98719.50
2023-01-26T13:41:19.487Z,98727.13
2023-01-26T13:43:52.272Z,98719.28
2023-01-26T13:46:23.097Z,98730.84
2023-01-26T13:48:55.431Z,98715.41
2023-01-26T13:51:29.086Z,98723.84
2023-01-26T13:54:13.446Z,98722.16
2023-01-26T13:56:59.048Z,98727.78
2023-01-26T13:59:25.860Z,98709.19
2023-01-26T14:01:54.638Z,98716.69
2023-01-26T14:04:23.695Z,98725.13
2023-01-26T14:07:15.586Z,98713.22
2023-01-26T14:09:48.796Z,98725.25
2023-01-26T14:12:42.793Z,98727.91
2023-01-26T14:15:24.579Z,98698.56
2023-01-26T14:17:56.718Z,98688.09
2023-01-26T14:20:32.964Z,98719.34
2023-01-26T14:23:10.230Z,98720.28
2023-01-26T14:25:38.148Z,98725.09
2023-01-26T14:28:04.758Z,98726.56
2023-01-26T14:30:34.249Z,98701.72
2023-01-26T14:33:04.986Z,98716.06
2023-01-26T14:35:32.253Z,98717.88
2023-01-26T14:38:13.433Z,98720.66
2023-01-26T14:40:49.110Z,98712.44
2023-01-26T14:43:15.829Z,98706.88
2023-01-26T14:45:55.613Z,98716.31
2023-01-26T14:48:29.165Z,98719.91
2023-01-26T14:50:56.301Z,98711.47
2023-01-26T14:53:25.304Z,98712.09
2023-01-26T14:55:53.584Z,98710.53
2023-01-26T14:58:28.127Z,98715.81
2023-01-26T15:00:58.440Z,98711.69
2023-01-26T15:03:34.115Z,98705.84
2023-01-26T15:06:21.253Z,98707.34
2023-01-26T15:09:05.275Z,98710.59
2023-01-26T15:11:58.527Z,98710.84
2023-01-26T15:14:38.370Z,98705.56
2023-01-26T15:17:05.812Z,98708.31
2023-01-26T15:19:40.407Z,98705.69
2023-01-26T15:22:20.745Z,98693.19
2023-01-26T15:24:58.882Z,98708.00
2023-01-26T15:27:31.183Z,98709.44
2023-01-26T15:29:59.716Z,98701.84
2023-01-26T15:32:32.305Z,98698.97
2023-01-26T15:35:32.391Z,98703.44
2023-01-26T15:38:06.377Z,98715.94
2023-01-26T15:40:33.011Z,98707.03
2023-01-26T15:43:12.407Z,98716.88
2023-01-26T15:45:52.212Z,98715.06
2023-01-26T15:48:19.426Z,98716.06
2023-01-26T15:50:48.417Z,98697.34
2023-01-26T15:53:17.003Z,98717.84
2023-01-26T15:55:44.341Z,98688.28
2023-01-26T15:58:11.273Z,98696.72
2023-01-26T16:00:39.110Z,98703.28
2023-01-26T16:03:13.877Z,98715.44
2023-01-26T16:05:40.486Z,98707.69
2023-01-26T16:08:06.985Z,98702.53
2023-01-26T16:10:34.524Z,98711.41
2023-01-26T16:13:01.049Z,98696.81
2023-01-26T16:15:39.422Z,98704.66
2023-01-26T16:18:06.252Z,98702.22
2023-01-26T16:20:34.093Z,98706.69
2023-01-26T16:23:00.864Z,98702.47
2023-01-26T16:25:29.893Z,98673.63
2023-01-26T16:27:57.963Z,98700.88
2023-01-26T16:30:25.381Z,98697.50
2023-01-26T16:32:53.045Z,98701.22
2023-01-26T16:35:22.896Z,98700.16
2023-01-26T16:37:49.824Z,98694.00
2023-01-26T16:40:18.746Z,98693.16
2023-01-26T16:42:49.676Z,98689.69
2023-01-26T16:45:20.194Z,98701.09
2023-01-26T16:47:49.796Z,98681.44
2023-01-26T16:50:16.597Z,98694.09
2023-01-26T16:52:43.215Z,98694.09
2023-01-26T16:55:13.688Z,98691.59
2023-01-26T16:57:41.852Z,98686.19
2023-01-26T17:00:19.738Z,98682.69
2023-01-26T17:02:52.037Z,98685.56
2023-01-26T17:05:19.947Z,98682.69
2023-01-26T17:07:46.856Z,98682.69
2023-01-26T17:10:15.217Z,98669.06
2023-01-26T17:12:42.336Z,98676.78
2023-01-26T17:15:12.002Z,98682.69
2023-01-26T17:17:38.772Z,98677.63
2023-01-26T17:20:18.405Z,98676.53
2023-01-26T17:22:45.826Z,98680.88
2023-01-26T17:25:16.017Z,98678.34
2023-01-26T17:27:43.712Z,98679.53
2023-01-26T17:30:10.977Z,98687.25
2023-01-26T17:32:37.743Z,98685.56
2023-01-26T17:35:04.487Z,98682.91
2023-01-26T17:37:31.586Z,98684.84
2023-01-26T17:39:58.226Z,98688.31
2023-01-26T17:42:25.876Z,98680.69
2023-01-26T17:44:52.453Z,98683.16
2023-01-26T17:47:19.159Z,98694.66
2023-01-26T17:49:45.666Z,98693.84
2023-01-26T17:52:14.369Z,98679.13
2023-01-26T17:54:41.280Z,98677.78
2023-01-26T17:57:08.621Z,98687.94
2023-01-26T17:59:35.241Z,98677.78
2023-01-26T18:02:02.640Z,98690.66
2023-01-26T18:04:31.336Z,98681.38
2023-01-26T18:09:19.112Z,98682.09
2023-01-26T18:11:45.897Z,98688.38
2023-01-26T18:14:12.437Z,98662.25
2023-01-26T18:16:39.097Z,98656.66
2023-01-26T18:19:05.870Z,98693.97
2023-01-26T18:21:34.774Z,98697.56
2023-01-26T18:24:03.807Z,98698.50
2023-01-26T18:26:33.789Z,98685.72
2023-01-26T18:29:00.500Z,98676.53
2023-01-26T18:31:33.161Z,98686.78
2023-01-26T18:34:00.843Z,98696.19
2023-01-26T18:36:28.574Z,98697.16
2023-01-26T18:38:58.639Z,98687.84
2023-01-26T18:41:26.447Z,98697.38
2023-01-26T18:43:54.957Z,98677.06
2023-01-26T18:46:22.475Z,98696.53
2023-01-26T18:48:49.517Z,98700.34
2023-01-26T18:51:18.200Z,98705.50
2023-01-26T18:53:45.315Z,98689.44
2023-01-26T18:56:14.173Z,98669.34
2023-01-26T18:58:41.932Z,98703.91
2023-01-26T19:01:12.969Z,98705.72
2023-01-26T19:03:41.635Z,98713.78
2023-01-26T19:06:09.278Z,98693.22
2023-01-26T19:08:35.923Z,98712.16
2023-01-26T19:11:07.489Z,98713.13
2023-01-26T19:13:35.909Z,98684.91
2023-01-26T19:16:02.723Z,98707.81
2023-01-26T19:18:29.480Z,98700.84
2023-01-26T19:21:00.979Z,98695.69
2023-01-26T19:23:31.516Z,98686.38
2023-01-26T19:25:58.255Z,98696.38
2023-01-26T19:28:24.778Z,98698.19
2023-01-26T19:30:51.443Z,98701.69
2023-01-26T19:33:28.807Z,98676.09
2023-01-26T19:35:56.607Z,98598.50
2023-01-26T19:38:24.033Z,98673.47
2023-01-26T19:40:52.090Z,98684.16
2023-01-26T19:43:23.807Z,98693.03
2023-01-26T19:45:55.645Z,98694.72
2023-01-26T19:48:24.537Z,98685.94
2023-01-26T19:51:24.235Z,98681.50
2023-01-26T19:53:55.179Z,98671.25
2023-01-26T19:56:25.907Z,98671.38
2023-01-26T19:58:54.510Z,98675.38
2023-01-26T20:01:21.835Z,98674.72
2023-01-26T20:03:53.459Z,98638.28
2023-01-26T20:06:23.219Z,98673.59
2023-01-26T20:08:49.964Z,98662.38
2023-01-26T20:11:17.378Z,98669.25
2023-01-26T20:13:43.966Z,98664.78
2023-01-26T20:16:12.127Z,98667.44
2023-01-26T20:18:38.816Z,98663.97
2023-01-26T20:21:07.075Z,98655.50
2023-01-26T20:23:34.745Z,98638.41
2023-01-26T20:26:09.371Z,98654.22
2023-01-26T20:28:37.816Z,98661.09
2023-01-26T20:31:16.991Z,98645.91
2023-01-26T20:33:47.535Z,98663.63
2023-01-26T20:36:18.426Z,98658.44
2023-01-26T20:38:48.350Z,98657.41
2023-01-26T20:41:18.608Z,98647.88
2023-01-26T20:43:58.796Z,98640.16
2023-01-26T20:46:29.532Z,98658.28
2023-01-26T20:48:57.079Z,98629.19
2023-01-26T20:53:36.621Z,98662.59
2023-01-26T20:56:09.045Z,98656.56
2023-01-26T21:00:54.358Z,98598.25
2023-01-26T21:03:21.146Z,98656.56
2023-01-26T21:05:50.007Z,98647.03
2023-01-26T21:08:16.607Z,98652.97
2023-01-26T21:10:46.065Z,98649.38
2023-01-26T21:13:12.754Z,98655.50
2023-01-26T21:15:40.157Z,98655.63
2023-01-26T21:18:06.724Z,98661.63
2023-01-26T21:20:33.282Z,98656.34
2023-01-26T21:23:00.010Z,98650.34
2023-01-26T21:25:26.841Z,98633.50
2023-01-26T21:27:53.589Z,98652.63
2023-01-26T21:30:20.419Z,98643.13
2023-01-26T21:32:47.355Z,98662.38
2023-01-26T21:35:15.976Z,98661.53
2023-01-26T21:37:42.723Z,98648.31
2023-01-26T21:40:10.542Z,98648.31
2023-01-26T21:42:37.469Z,98642.81
2023-01-26T21:45:23.165Z,98635.09
2023-01-26T21:48:09.773Z,98632.34
2023-01-26T21:50:56.044Z,98618.78
2023-01-26T21:53:25.585Z,98619.44
2023-01-26T21:55:52.106Z,98578.06
2023-01-26T21:58:37.561Z,98633.09
2023-01-26T22:01:09.098Z,98638.38
2023-01-26T22:03:36.792Z,98618.72
2023-01-26T22:06:04.305Z,98616.69
2023-01-26T22:08:31.108Z,98623.34
2023-01-26T22:10:57.948Z,98630.34
2023-01-26T22:13:26.371Z,98624.19
2023-01-26T22:15:52.869Z,98629.47
2023-01-26T22:18:19.504Z,98619.25
2023-01-26T22:20:46.268Z,98625.69
2023-01-26T22:23:13.866Z,98636.44
2023-01-26T22:25:41.154Z,98632.97
2023-01-26T22:28:08.290Z,98622.41
2023-01-26T22:30:34.909Z,98606.44
2023-01-26T22:33:01.792Z,98614.91
2023-01-26T22:35:30.118Z,98628.50
2023-01-26T22:37:56.978Z,98606.34
2023-01-26T22:40:24.726Z,98621.53
2023-01-26T22:42:54.429Z,98603.59
2023-01-26T22:45:21.577Z,98590.03
2023-01-26T22:47:49.121Z,98573.72
2023-01-26T22:50:16.660Z,98549.53
2023-01-26T22:52:46.223Z,98617.94
2023-01-26T22:55:12.927Z,98621.44
2023-01-26T22:57:39.727Z,98610.88
2023-01-26T23:00:07.104Z,98614.59
2023-01-26T23:02:33.755Z,98614.22
2023-01-26T23:05:00.278Z,98609.94
2023-01-26T23:07:26.859Z,98615.09
2023-01-26T23:09:53.378Z,98611.59
2023-01-26T23:12:19.959Z,98614.16
2023-01-26T23:14:46.464Z,98614.16
2023-01-26T23:17:13.235Z,98598.94
2023-01-26T23:19:39.805Z,98590.06
2023-01-26T23:22:06.543Z,98593.00
2023-01-26T23:24:33.085Z,98563.84
2023-01-26T23:26:59.815Z,98602.59
2023-01-26T23:29:26.446Z,98576.22
2023-01-26T23:31:53.532Z,98599.94
2023-01-26T23:34:21.232Z,98589.44
2023-01-26T23:36:47.921Z,98556.38
2023-01-26T23:39:14.636Z,98557.09
2023-01-26T23:41:41.492Z,98573.34
2023-01-26T23:44:08.019Z,98592.69
2023-01-26T23:46:34.676Z,98591.00
2023-01-26T23:49:01.588Z,98587.94
2023-01-26T23:51:28.220Z,98566.69
2023-01-26T23:53:55.708Z,98566.69
2023-01-26T23:56:23.333Z,98608.22
2023-01-26T23:58:49.885Z,98621.09
